sensor_id;sensor_type;location;lat;lon;timestamp;noise_LAeq;noise_LA_min;noise_LA_max;noise_LA01;noise_LA95
71628;Laerm;59477;52.374;9.916;2023-02-14T00:00:28;47.62;40.65;58.54;;
71628;Laerm;59477;52.374;9.916;2023-02-14T00:02:28;47.50;41.76;59.53;;
71628;Laerm;59477;52.374;9.916;2023-02-14T00:04:29;46.95;39.26;57.11;;
71628;Laerm;59477;52.374;9.916;2023-02-14T00:06:30;49.97;45.21;55.14;;
71628;Laerm;59477;52.374;9.916;2023-02-14T00:08:32;48.69;43.33;56.54;;
71628;Laerm;59477;52.374;9.916;2023-02-14T00:10:32;46.64;41.71;55.71;;
71628;Laerm;59477;52.374;9.916;2023-02-14T00:12:33;44.39;41.03;48.08;;
71628;Laerm;59477;52.374;9.916;2023-02-14T00:14:34;51.44;44.22;60.08;;
71628;Laerm;59477;52.374;9.916;2023-02-14T00:16:53;46.36;41.45;52.82;;
71628;Laerm;59477;52.374;9.916;2023-02-14T00:18:55;49.18;43.19;53.98;;
71628;Laerm;59477;52.374;9.916;2023-02-14T00:21:04;47.40;43.12;52.74;;
71628;Laerm;59477;52.374;9.916;2023-02-14T00:23:05;48.86;42.49;57.61;;
71628;Laerm;59477;52.374;9.916;2023-02-14T00:25:06;47.63;41.23;58.66;;
71628;Laerm;59477;52.374;9.916;2023-02-14T00:27:06;48.74;42.51;58.24;;
71628;Laerm;59477;52.374;9.916;2023-02-14T00:29:08;51.18;44.87;59.37;;
71628;Laerm;59477;52.374;9.916;2023-02-14T00:31:09;47.82;43.09;53.15;;
71628;Laerm;59477;52.374;9.916;2023-02-14T00:33:10;46.76;41.23;53.66;;
71628;Laerm;59477;52.374;9.916;2023-02-14T00:35:10;50.09;43.36;57.01;;
71628;Laerm;59477;52.374;9.916;2023-02-14T00:37:11;49.14;41.43;55.84;;
71628;Laerm;59477;52.374;9.916;2023-02-14T00:39:13;52.70;41.72;60.55;;
71628;Laerm;59477;52.374;9.916;2023-02-14T00:41:13;48.46;41.91;55.04;;
71628;Laerm;59477;52.374;9.916;2023-02-14T00:43:18;49.40;42.67;57.73;;
71628;Laerm;59477;52.374;9.916;2023-02-14T00:45:19;51.28;41.81;60.63;;
71628;Laerm;59477;52.374;9.916;2023-02-14T00:47:19;51.62;42.44;65.63;;
71628;Laerm;59477;52.374;9.916;2023-02-14T00:49:20;47.67;40.96;54.03;;
71628;Laerm;59477;52.374;9.916;2023-02-14T00:51:21;61.16;44.25;75.54;;
71628;Laerm;59477;52.374;9.916;2023-02-14T00:53:21;46.30;41.77;56.06;;
71628;Laerm;59477;52.374;9.916;2023-02-14T00:55:22;49.80;43.16;57.43;;
71628;Laerm;59477;52.374;9.916;2023-02-14T00:57:22;49.28;42.46;56.84;;
71628;Laerm;59477;52.374;9.916;2023-02-14T00:59:23;47.00;43.11;56.99;;
71628;Laerm;59477;52.374;9.916;2023-02-14T01:01:24;44.93;41.29;50.11;;
71628;Laerm;59477;52.374;9.916;2023-02-14T01:03:25;51.89;41.49;64.79;;
71628;Laerm;59477;52.374;9.916;2023-02-14T01:05:26;52.85;43.41;61.73;;
71628;Laerm;59477;52.374;9.916;2023-02-14T01:07:27;49.32;41.69;57.81;;
71628;Laerm;59477;52.374;9.916;2023-02-14T01:09:28;50.48;43.68;58.76;;
71628;Laerm;59477;52.374;9.916;2023-02-14T01:11:28;47.08;42.96;52.87;;
71628;Laerm;59477;52.374;9.916;2023-02-14T01:13:29;49.70;43.77;55.08;;
71628;Laerm;59477;52.374;9.916;2023-02-14T01:15:30;45.65;41.72;50.24;;
71628;Laerm;59477;52.374;9.916;2023-02-14T01:17:31;47.93;42.77;56.38;;
71628;Laerm;59477;52.374;9.916;2023-02-14T01:19:31;51.94;44.06;60.25;;
71628;Laerm;59477;52.374;9.916;2023-02-14T01:21:32;47.02;42.98;51.57;;
71628;Laerm;59477;52.374;9.916;2023-02-14T01:23:33;45.41;40.94;50.02;;
71628;Laerm;59477;52.374;9.916;2023-02-14T01:25:35;46.70;40.93;52.62;;
71628;Laerm;59477;52.374;9.916;2023-02-14T01:27:36;48.74;43.49;54.24;;
71628;Laerm;59477;52.374;9.916;2023-02-14T01:29:37;49.92;43.44;58.86;;
71628;Laerm;59477;52.374;9.916;2023-02-14T01:31:37;50.13;44.94;60.99;;
71628;Laerm;59477;52.374;9.916;2023-02-14T01:33:38;48.78;44.07;54.28;;
71628;Laerm;59477;52.374;9.916;2023-02-14T01:35:39;50.80;43.90;56.85;;
71628;Laerm;59477;52.374;9.916;2023-02-14T01:37:40;47.80;43.63;52.65;;
71628;Laerm;59477;52.374;9.916;2023-02-14T01:39:41;47.12;42.91;53.35;;
71628;Laerm;59477;52.374;9.916;2023-02-14T01:41:42;48.88;42.29;54.96;;
71628;Laerm;59477;52.374;9.916;2023-02-14T01:45:58;45.36;41.06;51.96;;
71628;Laerm;59477;52.374;9.916;2023-02-14T01:47:59;43.34;39.71;48.66;;
71628;Laerm;59477;52.374;9.916;2023-02-14T01:50:11;47.69;40.57;54.78;;
71628;Laerm;59477;52.374;9.916;2023-02-14T01:52:21;46.54;39.94;54.69;;
71628;Laerm;59477;52.374;9.916;2023-02-14T01:54:23;50.11;44.58;57.14;;
71628;Laerm;59477;52.374;9.916;2023-02-14T01:56:29;45.71;41.30;55.98;;
71628;Laerm;59477;52.374;9.916;2023-02-14T01:58:34;46.80;42.14;58.19;;
71628;Laerm;59477;52.374;9.916;2023-02-14T02:00:37;47.49;42.09;56.66;;
71628;Laerm;59477;52.374;9.916;2023-02-14T02:02:57;47.54;42.95;53.22;;
71628;Laerm;59477;52.374;9.916;2023-02-14T02:04:58;47.06;41.89;55.03;;
71628;Laerm;59477;52.374;9.916;2023-02-14T02:07:00;46.55;42.08;53.07;;
71628;Laerm;59477;52.374;9.916;2023-02-14T02:11:41;47.44;41.19;55.30;;
71628;Laerm;59477;52.374;9.916;2023-02-14T02:13:42;44.01;39.92;47.75;;
71628;Laerm;59477;52.374;9.916;2023-02-14T02:15:48;47.28;42.11;55.24;;
71628;Laerm;59477;52.374;9.916;2023-02-14T02:17:57;45.56;40.03;54.02;;
71628;Laerm;59477;52.374;9.916;2023-02-14T02:24:20;47.77;41.80;56.73;;
71628;Laerm;59477;52.374;9.916;2023-02-14T02:31:18;47.11;41.62;55.27;;
71628;Laerm;59477;52.374;9.916;2023-02-14T02:42:02;46.04;40.72;54.21;;
71628;Laerm;59477;52.374;9.916;2023-02-14T02:48:25;43.56;39.52;50.71;;
71628;Laerm;59477;52.374;9.916;2023-02-14T02:50:32;46.81;42.20;54.62;;
71628;Laerm;59477;52.374;9.916;2023-02-14T02:55:19;46.10;39.46;56.51;;
71628;Laerm;59477;52.374;9.916;2023-02-14T02:57:26;44.26;39.61;48.84;;
71628;Laerm;59477;52.374;9.916;2023-02-14T02:59:29;45.37;40.35;50.96;;
71628;Laerm;59477;52.374;9.916;2023-02-14T03:01:32;44.29;41.08;48.32;;
71628;Laerm;59477;52.374;9.916;2023-02-14T03:03:34;45.53;41.14;51.36;;
71628;Laerm;59477;52.374;9.916;2023-02-14T03:05:54;52.60;42.23;64.93;;
71628;Laerm;59477;52.374;9.916;2023-02-14T03:07:56;46.70;41.00;56.30;;
71628;Laerm;59477;52.374;9.916;2023-02-14T03:09:57;45.39;41.30;51.67;;
71628;Laerm;59477;52.374;9.916;2023-02-14T03:14:23;46.14;41.98;51.28;;
71628;Laerm;59477;52.374;9.916;2023-02-14T03:20:44;45.84;40.34;51.04;;
71628;Laerm;59477;52.374;9.916;2023-02-14T03:24:51;47.28;41.71;56.16;;
71628;Laerm;59477;52.374;9.916;2023-02-14T03:31:55;45.41;41.80;51.98;;
71628;Laerm;59477;52.374;9.916;2023-02-14T03:33:56;46.16;42.16;51.69;;
71628;Laerm;59477;52.374;9.916;2023-02-14T03:38:05;46.00;41.81;53.71;;
71628;Laerm;59477;52.374;9.916;2023-02-14T03:40:10;50.41;42.63;58.30;;
71628;Laerm;59477;52.374;9.916;2023-02-14T03:42:18;47.61;42.21;55.58;;
71628;Laerm;59477;52.374;9.916;2023-02-14T03:44:21;49.59;42.64;55.59;;
71628;Laerm;59477;52.374;9.916;2023-02-14T03:48:38;44.39;40.73;49.41;;
71628;Laerm;59477;52.374;9.916;2023-02-14T03:50:40;47.74;42.73;63.88;;
71628;Laerm;59477;52.374;9.916;2023-02-14T03:52:42;45.55;41.30;51.10;;
71628;Laerm;59477;52.374;9.916;2023-02-14T03:54:44;46.64;41.52;53.71;;
71628;Laerm;59477;52.374;9.916;2023-02-14T03:56:49;48.93;44.11;54.65;;
71628;Laerm;59477;52.374;9.916;2023-02-14T03:58:53;46.91;42.64;55.48;;
71628;Laerm;59477;52.374;9.916;2023-02-14T04:00:57;48.05;43.32;55.05;;
71628;Laerm;59477;52.374;9.916;2023-02-14T04:03:00;48.61;42.16;56.56;;
71628;Laerm;59477;52.374;9.916;2023-02-14T04:05:03;47.40;43.40;52.34;;
71628;Laerm;59477;52.374;9.916;2023-02-14T04:07:13;46.80;42.45;51.47;;
71628;Laerm;59477;52.374;9.916;2023-02-14T04:09:14;49.12;43.07;55.27;;
71628;Laerm;59477;52.374;9.916;2023-02-14T04:11:15;48.45;43.46;53.84;;
71628;Laerm;59477;52.374;9.916;2023-02-14T04:13:16;50.55;42.09;58.74;;
71628;Laerm;59477;52.374;9.916;2023-02-14T04:15:16;51.23;43.32;58.61;;
71628;Laerm;59477;52.374;9.916;2023-02-14T04:17:20;46.54;41.75;52.15;;
71628;Laerm;59477;52.374;9.916;2023-02-14T04:19:39;47.40;43.00;51.88;;
71628;Laerm;59477;52.374;9.916;2023-02-14T04:21:40;49.45;43.97;56.52;;
71628;Laerm;59477;52.374;9.916;2023-02-14T04:23:40;49.21;45.58;53.27;;
71628;Laerm;59477;52.374;9.916;2023-02-14T04:25:41;49.62;43.96;55.23;;
71628;Laerm;59477;52.374;9.916;2023-02-14T04:27:42;47.52;44.06;53.48;;
71628;Laerm;59477;52.374;9.916;2023-02-14T04:29:47;52.09;44.70;61.60;;
71628;Laerm;59477;52.374;9.916;2023-02-14T04:31:47;50.28;45.68;57.40;;
71628;Laerm;59477;52.374;9.916;2023-02-14T04:33:48;51.48;45.55;57.63;;
71628;Laerm;59477;52.374;9.916;2023-02-14T04:35:50;51.46;45.84;58.40;;
71628;Laerm;59477;52.374;9.916;2023-02-14T04:37:51;49.09;46.01;53.48;;
71628;Laerm;59477;52.374;9.916;2023-02-14T04:39:51;49.44;44.87;53.87;;
71628;Laerm;59477;52.374;9.916;2023-02-14T04:41:52;50.02;45.34;56.22;;
71628;Laerm;59477;52.374;9.916;2023-02-14T04:43:52;52.38;46.23;58.79;;
71628;Laerm;59477;52.374;9.916;2023-02-14T04:45:53;50.38;45.77;57.44;;
71628;Laerm;59477;52.374;9.916;2023-02-14T04:47:53;51.07;45.31;59.88;;
71628;Laerm;59477;52.374;9.916;2023-02-14T04:49:56;50.91;45.73;56.08;;
71628;Laerm;59477;52.374;9.916;2023-02-14T04:51:57;50.40;45.99;54.82;;
71628;Laerm;59477;52.374;9.916;2023-02-14T04:53:58;51.13;46.62;57.29;;
71628;Laerm;59477;52.374;9.916;2023-02-14T04:55:58;50.86;46.85;55.22;;
71628;Laerm;59477;52.374;9.916;2023-02-14T04:57:59;51.93;47.42;57.92;;
71628;Laerm;59477;52.374;9.916;2023-02-14T04:59:59;50.29;45.18;56.15;;
71628;Laerm;59477;52.374;9.916;2023-02-14T05:02:00;50.80;46.11;56.67;;
71628;Laerm;59477;52.374;9.916;2023-02-14T05:04:01;51.27;44.36;59.85;;
71628;Laerm;59477;52.374;9.916;2023-02-14T05:06:02;49.59;44.86;54.33;;
71628;Laerm;59477;52.374;9.916;2023-02-14T05:08:02;50.87;46.17;55.15;;
71628;Laerm;59477;52.374;9.916;2023-02-14T05:10:03;52.01;47.36;57.37;;
71628;Laerm;59477;52.374;9.916;2023-02-14T05:12:04;52.18;45.64;60.49;;
71628;Laerm;59477;52.374;9.916;2023-02-14T05:14:05;49.72;45.45;56.06;;
71628;Laerm;59477;52.374;9.916;2023-02-14T05:16:05;49.08;45.97;53.24;;
71628;Laerm;59477;52.374;9.916;2023-02-14T05:18:06;52.86;47.17;62.70;;
71628;Laerm;59477;52.374;9.916;2023-02-14T05:20:07;50.60;46.58;54.42;;
71628;Laerm;59477;52.374;9.916;2023-02-14T05:22:07;49.69;45.93;53.34;;
71628;Laerm;59477;52.374;9.916;2023-02-14T05:24:08;51.91;47.09;57.88;;
71628;Laerm;59477;52.374;9.916;2023-02-14T05:26:09;50.18;46.31;53.95;;
71628;Laerm;59477;52.374;9.916;2023-02-14T05:28:10;51.99;46.07;59.34;;
71628;Laerm;59477;52.374;9.916;2023-02-14T05:30:11;53.23;48.69;59.98;;
71628;Laerm;59477;52.374;9.916;2023-02-14T05:32:14;52.01;47.45;59.34;;
71628;Laerm;59477;52.374;9.916;2023-02-14T05:34:17;51.38;46.92;55.30;;
71628;Laerm;59477;52.374;9.916;2023-02-14T05:36:18;52.44;47.41;62.44;;
71628;Laerm;59477;52.374;9.916;2023-02-14T05:38:18;51.29;47.01;55.79;;
71628;Laerm;59477;52.374;9.916;2023-02-14T05:40:19;51.88;46.50;57.84;;
71628;Laerm;59477;52.374;9.916;2023-02-14T05:42:19;51.53;46.53;58.28;;
71628;Laerm;59477;52.374;9.916;2023-02-14T05:44:20;51.16;47.41;57.30;;
71628;Laerm;59477;52.374;9.916;2023-02-14T05:46:21;53.05;48.18;60.76;;
71628;Laerm;59477;52.374;9.916;2023-02-14T05:48:24;51.61;47.04;55.69;;
71628;Laerm;59477;52.374;9.916;2023-02-14T05:50:24;52.22;48.11;57.14;;
71628;Laerm;59477;52.374;9.916;2023-02-14T05:52:25;51.17;46.54;57.67;;
71628;Laerm;59477;52.374;9.916;2023-02-14T05:54:26;52.69;48.66;56.70;;
71628;Laerm;59477;52.374;9.916;2023-02-14T05:56:27;51.78;47.76;58.39;;
71628;Laerm;59477;52.374;9.916;2023-02-14T05:58:27;53.02;48.84;57.63;;
71628;Laerm;59477;52.374;9.916;2023-02-14T06:00:28;52.20;48.92;57.37;;
71628;Laerm;59477;52.374;9.916;2023-02-14T06:02:28;52.47;49.01;57.17;;
71628;Laerm;59477;52.374;9.916;2023-02-14T06:04:29;52.35;47.97;57.96;;
71628;Laerm;59477;52.374;9.916;2023-02-14T06:06:29;52.26;48.69;58.21;;
71628;Laerm;59477;52.374;9.916;2023-02-14T06:08:30;52.60;47.29;57.71;;
71628;Laerm;59477;52.374;9.916;2023-02-14T06:10:30;51.69;48.05;54.93;;
71628;Laerm;59477;52.374;9.916;2023-02-14T06:12:34;52.44;48.70;59.78;;
71628;Laerm;59477;52.374;9.916;2023-02-14T06:14:35;53.26;48.44;61.14;;
71628;Laerm;59477;52.374;9.916;2023-02-14T06:16:35;53.12;49.00;62.05;;
71628;Laerm;59477;52.374;9.916;2023-02-14T06:18:36;53.53;49.58;57.23;;
71628;Laerm;59477;52.374;9.916;2023-02-14T06:20:36;54.01;48.71;71.05;;
71628;Laerm;59477;52.374;9.916;2023-02-14T06:22:37;53.84;48.84;71.11;;
71628;Laerm;59477;52.374;9.916;2023-02-14T06:24:38;52.62;48.67;57.20;;
71628;Laerm;59477;52.374;9.916;2023-02-14T06:26:38;52.75;48.56;62.14;;
71628;Laerm;59477;52.374;9.916;2023-02-14T06:28:39;53.31;48.98;59.03;;
71628;Laerm;59477;52.374;9.916;2023-02-14T06:30:40;54.05;50.59;57.63;;
71628;Laerm;59477;52.374;9.916;2023-02-14T06:32:40;52.87;49.23;62.14;;
71628;Laerm;59477;52.374;9.916;2023-02-14T06:34:41;53.67;50.07;56.60;;
71628;Laerm;59477;52.374;9.916;2023-02-14T06:36:42;53.21;49.59;56.34;;
71628;Laerm;59477;52.374;9.916;2023-02-14T06:38:42;52.84;48.61;57.09;;
71628;Laerm;59477;52.374;9.916;2023-02-14T06:40:43;53.50;49.63;57.76;;
71628;Laerm;59477;52.374;9.916;2023-02-14T06:42:44;54.30;50.87;60.18;;
71628;Laerm;59477;52.374;9.916;2023-02-14T06:44:44;53.86;50.18;58.22;;
71628;Laerm;59477;52.374;9.916;2023-02-14T06:46:45;53.29;47.77;60.72;;
71628;Laerm;59477;52.374;9.916;2023-02-14T06:48:46;53.54;48.94;58.36;;
71628;Laerm;59477;52.374;9.916;2023-02-14T06:50:46;53.27;49.68;59.66;;
71628;Laerm;59477;52.374;9.916;2023-02-14T06:52:47;52.93;49.65;56.31;;
71628;Laerm;59477;52.374;9.916;2023-02-14T06:54:47;53.32;49.91;58.92;;
71628;Laerm;59477;52.374;9.916;2023-02-14T06:56:48;53.81;49.01;66.40;;
71628;Laerm;59477;52.374;9.916;2023-02-14T06:58:48;53.30;49.10;59.41;;
71628;Laerm;59477;52.374;9.916;2023-02-14T07:00:49;53.37;48.20;69.62;;
71628;Laerm;59477;52.374;9.916;2023-02-14T07:02:50;52.36;49.12;63.11;;
71628;Laerm;59477;52.374;9.916;2023-02-14T07:04:50;52.38;48.88;56.27;;
71628;Laerm;59477;52.374;9.916;2023-02-14T07:06:51;52.38;48.30;59.44;;
71628;Laerm;59477;52.374;9.916;2023-02-14T07:08:51;54.63;48.24;61.68;;
71628;Laerm;59477;52.374;9.916;2023-02-14T07:10:58;54.88;48.56;61.94;;
71628;Laerm;59477;52.374;9.916;2023-02-14T07:12:58;53.28;49.28;63.63;;
71628;Laerm;59477;52.374;9.916;2023-02-14T07:14:59;53.71;49.84;59.96;;
71628;Laerm;59477;52.374;9.916;2023-02-14T07:16:59;53.64;49.28;60.19;;
71628;Laerm;59477;52.374;9.916;2023-02-14T07:19:00;52.95;48.16;61.65;;
71628;Laerm;59477;52.374;9.916;2023-02-14T07:21:01;53.87;49.33;59.96;;
71628;Laerm;59477;52.374;9.916;2023-02-14T07:23:01;54.09;49.94;61.03;;
71628;Laerm;59477;52.374;9.916;2023-02-14T07:25:02;53.55;48.02;61.88;;
71628;Laerm;59477;52.374;9.916;2023-02-14T07:27:03;54.17;48.62;64.91;;
71628;Laerm;59477;52.374;9.916;2023-02-14T07:29:04;55.18;48.85;68.81;;
71628;Laerm;59477;52.374;9.916;2023-02-14T07:31:04;54.09;48.94;61.85;;
71628;Laerm;59477;52.374;9.916;2023-02-14T07:33:05;55.18;48.18;78.18;;
71628;Laerm;59477;52.374;9.916;2023-02-14T07:35:06;52.58;48.22;58.88;;
71628;Laerm;59477;52.374;9.916;2023-02-14T07:37:07;53.23;47.41;62.56;;
71628;Laerm;59477;52.374;9.916;2023-02-14T07:39:07;52.60;48.13;62.06;;
71628;Laerm;59477;52.374;9.916;2023-02-14T07:41:17;52.28;48.27;58.39;;
71628;Laerm;59477;52.374;9.916;2023-02-14T07:43:18;52.26;48.47;58.71;;
71628;Laerm;59477;52.374;9.916;2023-02-14T07:45:18;53.17;48.69;64.11;;
71628;Laerm;59477;52.374;9.916;2023-02-14T07:47:19;53.44;48.57;64.05;;
71628;Laerm;59477;52.374;9.916;2023-02-14T07:49:20;52.95;48.88;62.51;;
71628;Laerm;59477;52.374;9.916;2023-02-14T07:51:20;53.30;49.42;62.12;;
71628;Laerm;59477;52.374;9.916;2023-02-14T07:53:21;53.14;49.47;59.43;;
71628;Laerm;59477;52.374;9.916;2023-02-14T07:55:22;52.50;48.50;59.54;;
71628;Laerm;59477;52.374;9.916;2023-02-14T07:57:24;51.96;48.00;56.30;;
71628;Laerm;59477;52.374;9.916;2023-02-14T07:59:25;52.63;48.44;57.37;;
71628;Laerm;59477;52.374;9.916;2023-02-14T08:01:25;52.61;49.27;61.41;;
71628;Laerm;59477;52.374;9.916;2023-02-14T08:03:26;54.06;49.67;58.68;;
71628;Laerm;59477;52.374;9.916;2023-02-14T08:05:26;53.08;49.56;62.56;;
71628;Laerm;59477;52.374;9.916;2023-02-14T08:07:27;52.72;49.02;60.87;;
71628;Laerm;59477;52.374;9.916;2023-02-14T08:09:28;53.62;49.94;57.50;;
71628;Laerm;59477;52.374;9.916;2023-02-14T08:11:28;54.30;50.69;60.26;;
71628;Laerm;59477;52.374;9.916;2023-02-14T08:13:48;54.39;49.75;67.36;;
71628;Laerm;59477;52.374;9.916;2023-02-14T08:15:51;54.39;49.50;67.92;;
71628;Laerm;59477;52.374;9.916;2023-02-14T08:18:03;53.80;49.78;62.90;;
71628;Laerm;59477;52.374;9.916;2023-02-14T08:20:04;54.54;48.41;68.36;;
71628;Laerm;59477;52.374;9.916;2023-02-14T08:22:05;54.00;48.66;65.15;;
71628;Laerm;59477;52.374;9.916;2023-02-14T08:24:06;53.43;48.56;59.66;;
71628;Laerm;59477;52.374;9.916;2023-02-14T08:26:06;53.73;48.26;61.11;;
71628;Laerm;59477;52.374;9.916;2023-02-14T08:28:07;53.52;49.00;60.99;;
71628;Laerm;59477;52.374;9.916;2023-02-14T08:30:08;52.83;48.74;56.80;;
71628;Laerm;59477;52.374;9.916;2023-02-14T08:32:08;51.45;46.92;62.38;;
71628;Laerm;59477;52.374;9.916;2023-02-14T08:34:09;51.00;46.63;58.88;;
71628;Laerm;59477;52.374;9.916;2023-02-14T08:36:09;50.58;46.77;58.05;;
71628;Laerm;59477;52.374;9.916;2023-02-14T08:38:10;49.27;45.80;59.78;;
71628;Laerm;59477;52.374;9.916;2023-02-14T08:40:11;50.32;46.63;57.05;;
71628;Laerm;59477;52.374;9.916;2023-02-14T08:42:11;50.30;46.68;55.08;;
71628;Laerm;59477;52.374;9.916;2023-02-14T08:44:12;51.04;47.45;56.96;;
71628;Laerm;59477;52.374;9.916;2023-02-14T08:46:13;53.77;47.00;67.14;;
71628;Laerm;59477;52.374;9.916;2023-02-14T08:48:14;50.10;46.35;58.44;;
71628;Laerm;59477;52.374;9.916;2023-02-14T08:50:15;50.44;46.58;57.28;;
71628;Laerm;59477;52.374;9.916;2023-02-14T08:52:16;52.01;46.35;65.40;;
71628;Laerm;59477;52.374;9.916;2023-02-14T08:54:17;51.04;47.20;65.53;;
71628;Laerm;59477;52.374;9.916;2023-02-14T08:56:18;51.20;47.51;59.72;;
71628;Laerm;59477;52.374;9.916;2023-02-14T08:58:20;51.32;47.23;61.68;;
71628;Laerm;59477;52.374;9.916;2023-02-14T09:00:21;51.25;46.56;63.80;;
71628;Laerm;59477;52.374;9.916;2023-02-14T09:02:21;51.40;46.58;62.59;;
71628;Laerm;59477;52.374;9.916;2023-02-14T09:04:22;51.47;47.49;56.40;;
71628;Laerm;59477;52.374;9.916;2023-02-14T09:06:23;51.18;46.63;62.65;;
71628;Laerm;59477;52.374;9.916;2023-02-14T09:08:23;51.33;46.50;64.94;;
71628;Laerm;59477;52.374;9.916;2023-02-14T09:10:24;49.76;45.88;60.80;;
71628;Laerm;59477;52.374;9.916;2023-02-14T09:12:25;49.28;45.47;55.34;;
71628;Laerm;59477;52.374;9.916;2023-02-14T09:14:26;50.90;47.13;54.97;;
71628;Laerm;59477;52.374;9.916;2023-02-14T09:16:26;48.70;45.61;57.61;;
71628;Laerm;59477;52.374;9.916;2023-02-14T09:18:27;50.45;45.51;61.93;;
71628;Laerm;59477;52.374;9.916;2023-02-14T09:20:28;51.04;46.17;60.75;;
71628;Laerm;59477;52.374;9.916;2023-02-14T09:22:28;50.44;46.85;62.12;;
71628;Laerm;59477;52.374;9.916;2023-02-14T09:24:29;48.42;45.51;59.51;;
71628;Laerm;59477;52.374;9.916;2023-02-14T09:26:30;48.77;45.85;52.29;;
71628;Laerm;59477;52.374;9.916;2023-02-14T09:28:32;49.71;45.55;55.78;;
71628;Laerm;59477;52.374;9.916;2023-02-14T09:30:32;50.63;45.39;57.26;;
71628;Laerm;59477;52.374;9.916;2023-02-14T09:32:33;50.71;45.90;57.78;;
71628;Laerm;59477;52.374;9.916;2023-02-14T09:34:34;49.65;45.08;56.95;;
71628;Laerm;59477;52.374;9.916;2023-02-14T09:36:34;49.17;45.80;55.12;;
71628;Laerm;59477;52.374;9.916;2023-02-14T09:38:53;48.18;45.41;53.61;;
71628;Laerm;59477;52.374;9.916;2023-02-14T09:40:54;48.06;44.97;54.57;;
71628;Laerm;59477;52.374;9.916;2023-02-14T09:42:59;47.99;44.84;59.36;;
71628;Laerm;59477;52.374;9.916;2023-02-14T09:45:09;48.52;45.19;54.88;;
71628;Laerm;59477;52.374;9.916;2023-02-14T09:47:17;48.10;43.40;65.17;;
71628;Laerm;59477;52.374;9.916;2023-02-14T09:49:21;49.42;43.40;64.20;;
71628;Laerm;59477;52.374;9.916;2023-02-14T09:51:26;49.22;44.27;59.71;;
71628;Laerm;59477;52.374;9.916;2023-02-14T09:53:29;46.47;43.13;55.75;;
71628;Laerm;59477;52.374;9.916;2023-02-14T09:55:39;48.23;43.89;60.50;;
71628;Laerm;59477;52.374;9.916;2023-02-14T10:00:10;48.64;41.55;66.04;;
71628;Laerm;59477;52.374;9.916;2023-02-14T10:02:17;46.59;41.60;58.42;;
71628;Laerm;59477;52.374;9.916;2023-02-14T10:06:50;44.51;40.63;61.27;;
71628;Laerm;59477;52.374;9.916;2023-02-14T10:11:02;47.89;41.66;64.22;;
71628;Laerm;59477;52.374;9.916;2023-02-14T10:15:09;45.30;40.69;50.49;;
71628;Laerm;59477;52.374;9.916;2023-02-14T10:17:13;43.28;40.51;48.25;;
71628;Laerm;59477;52.374;9.916;2023-02-14T10:19:18;42.88;39.81;49.52;;
71628;Laerm;59477;52.374;9.916;2023-02-14T10:21:22;43.69;39.80;57.30;;
71628;Laerm;59477;52.374;9.916;2023-02-14T10:23:26;46.22;39.26;63.82;;
71628;Laerm;59477;52.374;9.916;2023-02-14T10:27:59;43.47;38.07;61.01;;
71628;Laerm;59477;52.374;9.916;2023-02-14T10:30:01;47.39;38.52;69.16;;
71628;Laerm;59477;52.374;9.916;2023-02-14T10:32:03;44.74;39.55;51.27;;
71628;Laerm;59477;52.374;9.916;2023-02-14T10:34:08;43.38;36.96;58.60;;
71628;Laerm;59477;52.374;9.916;2023-02-14T10:36:47;45.78;37.02;59.01;;
71628;Laerm;59477;52.374;9.916;2023-02-14T10:41:53;47.99;38.23;65.17;;
71628;Laerm;59477;52.374;9.916;2023-02-14T10:51:59;41.71;36.32;51.79;;
71628;Laerm;59477;52.374;9.916;2023-02-14T10:56:14;41.62;36.60;68.11;;
71628;Laerm;59477;52.374;9.916;2023-02-14T10:58:20;40.95;36.35;49.72;;
71628;Laerm;59477;52.374;9.916;2023-02-14T11:00:23;45.47;36.61;62.21;;
71628;Laerm;59477;52.374;9.916;2023-02-14T11:02:30;49.82;37.12;64.24;;
71628;Laerm;59477;52.374;9.916;2023-02-14T11:04:32;39.98;35.87;52.34;;
71628;Laerm;59477;52.374;9.916;2023-02-14T11:06:35;42.38;36.48;52.67;;
71628;Laerm;59477;52.374;9.916;2023-02-14T11:08:36;40.72;35.92;50.12;;
71628;Laerm;59477;52.374;9.916;2023-02-14T11:10:37;43.14;38.26;54.61;;
71628;Laerm;59477;52.374;9.916;2023-02-14T11:12:38;48.19;37.41;66.48;;
71628;Laerm;59477;52.374;9.916;2023-02-14T11:14:39;45.65;36.30;60.57;;
71628;Laerm;59477;52.374;9.916;2023-02-14T11:16:40;44.96;37.01;60.79;;
71628;Laerm;59477;52.374;9.916;2023-02-14T11:18:41;44.11;38.30;59.34;;
71628;Laerm;59477;52.374;9.916;2023-02-14T11:20:42;42.69;37.04;57.91;;
71628;Laerm;59477;52.374;9.916;2023-02-14T11:22:42;40.10;36.10;48.97;;
71628;Laerm;59477;52.374;9.916;2023-02-14T11:24:43;41.94;36.49;48.45;;
71628;Laerm;59477;52.374;9.916;2023-02-14T11:26:46;45.95;36.63;63.22;;
71628;Laerm;59477;52.374;9.916;2023-02-14T11:29:03;46.63;36.71;63.83;;
71628;Laerm;59477;52.374;9.916;2023-02-14T11:31:10;43.88;35.02;60.65;;
71628;Laerm;59477;52.374;9.916;2023-02-14T11:35:29;44.88;36.08;61.57;;
71628;Laerm;59477;52.374;9.916;2023-02-14T11:37:49;45.69;37.91;56.68;;
71628;Laerm;59477;52.374;9.916;2023-02-14T11:39:51;45.37;37.31;63.09;;
71628;Laerm;59477;52.374;9.916;2023-02-14T11:41:55;42.67;35.38;64.42;;
71628;Laerm;59477;52.374;9.916;2023-02-14T11:44:10;44.06;37.98;52.12;;
71628;Laerm;59477;52.374;9.916;2023-02-14T11:46:12;42.62;36.78;53.72;;
71628;Laerm;59477;52.374;9.916;2023-02-14T11:50:22;41.73;36.01;48.69;;
71628;Laerm;59477;52.374;9.916;2023-02-14T11:52:24;44.07;39.03;60.26;;
71628;Laerm;59477;52.374;9.916;2023-02-14T11:54:33;48.73;39.92;62.54;;
71628;Laerm;59477;52.374;9.916;2023-02-14T11:56:48;49.69;40.58;66.13;;
71628;Laerm;59477;52.374;9.916;2023-02-14T11:58:52;50.85;37.47;70.36;;
71628;Laerm;59477;52.374;9.916;2023-02-14T12:00:54;48.46;37.41;69.88;;
71628;Laerm;59477;52.374;9.916;2023-02-14T12:02:54;43.90;37.05;58.15;;
71628;Laerm;59477;52.374;9.916;2023-02-14T12:04:59;43.31;37.64;49.54;;
71628;Laerm;59477;52.374;9.916;2023-02-14T12:07:14;46.33;36.93;67.89;;
71628;Laerm;59477;52.374;9.916;2023-02-14T12:11:22;44.38;39.94;51.22;;
71628;Laerm;59477;52.374;9.916;2023-02-14T12:13:23;46.12;39.40;62.26;;
71628;Laerm;59477;52.374;9.916;2023-02-14T12:15:34;45.64;39.54;56.60;;
71628;Laerm;59477;52.374;9.916;2023-02-14T12:17:39;44.65;39.41;57.74;;
71628;Laerm;59477;52.374;9.916;2023-02-14T12:21:58;46.72;40.04;55.28;;
71628;Laerm;59477;52.374;9.916;2023-02-14T12:24:05;44.61;39.94;51.26;;
71628;Laerm;59477;52.374;9.916;2023-02-14T12:28:34;48.68;38.51;61.95;;
71628;Laerm;59477;52.374;9.916;2023-02-14T12:30:37;46.74;40.38;58.97;;
71628;Laerm;59477;52.374;9.916;2023-02-14T12:32:42;45.13;38.04;60.44;;
71628;Laerm;59477;52.374;9.916;2023-02-14T12:34:45;45.35;39.34;52.26;;
71628;Laerm;59477;52.374;9.916;2023-02-14T12:41:28;46.19;39.60;70.96;;
71628;Laerm;59477;52.374;9.916;2023-02-14T12:43:53;45.95;39.23;53.00;;
71628;Laerm;59477;52.374;9.916;2023-02-14T12:50:28;46.94;38.51;56.47;;
71628;Laerm;59477;52.374;9.916;2023-02-14T12:56:35;44.38;39.21;52.50;;
71628;Laerm;59477;52.374;9.916;2023-02-14T12:58:41;44.44;36.72;57.07;;
71628;Laerm;59477;52.374;9.916;2023-02-14T13:05:00;47.46;38.70;57.21;;
71628;Laerm;59477;52.374;9.916;2023-02-14T13:09:35;49.76;38.81;59.39;;